sensor_id;sensor_type;location;lat;lon;timestamp;temperature;humidity
19799;DHT22;10059;59.850;10.454;2022-11-24T00:01:53;2.40;99.90
19799;DHT22;10059;59.850;10.454;2022-11-24T00:04:20;2.30;99.90
19799;DHT22;10059;59.850;10.454;2022-11-24T00:06:47;2.30;99.90
19799;DHT22;10059;59.850;10.454;2022-11-24T00:09:14;2.40;99.90
19799;DHT22;10059;59.850;10.454;2022-11-24T00:11:41;2.30;99.90
19799;DHT22;10059;59.850;10.454;2022-11-24T00:14:10;2.30;99.90
19799;DHT22;10059;59.850;10.454;2022-11-24T00:16:37;2.30;99.90
19799;DHT22;10059;59.850;10.454;2022-11-24T00:19:06;2.30;99.90
19799;DHT22;10059;59.850;10.454;2022-11-24T00:21:35;2.40;99.90
19799;DHT22;10059;59.850;10.454;2022-11-24T00:24:02;2.40;99.90
19799;DHT22;10059;59.850;10.454;2022-11-24T00:26:30;2.40;99.90
19799;DHT22;10059;59.850;10.454;2022-11-24T00:28:59;2.40;99.90
19799;DHT22;10059;59.850;10.454;2022-11-24T00:31:30;2.40;99.90
19799;DHT22;10059;59.850;10.454;2022-11-24T00:33:58;2.40;99.90
19799;DHT22;10059;59.850;10.454;2022-11-24T00:36:27;2.40;99.90
19799;DHT22;10059;59.850;10.454;2022-11-24T00:38:55;2.40;99.90
19799;DHT22;10059;59.850;10.454;2022-11-24T00:41:24;2.40;99.90
19799;DHT22;10059;59.850;10.454;2022-11-24T00:43:51;2.30;99.90
19799;DHT22;10059;59.850;10.454;2022-11-24T00:46:18;2.40;99.90
19799;DHT22;10059;59.850;10.454;2022-11-24T00:48:47;2.40;99.90
19799;DHT22;10059;59.850;10.454;2022-11-24T00:51:15;2.30;99.90
19799;DHT22;10059;59.850;10.454;2022-11-24T00:53:43;2.40;99.90
19799;DHT22;10059;59.850;10.454;2022-11-24T00:56:10;2.40;99.90
19799;DHT22;10059;59.850;10.454;2022-11-24T00:58:38;2.40;99.90
19799;DHT22;10059;59.850;10.454;2022-11-24T01:01:07;2.50;99.90
19799;DHT22;10059;59.850;10.454;2022-11-24T01:03:34;2.40;99.90
19799;DHT22;10059;59.850;10.454;2022-11-24T01:06:03;2.40;99.90
19799;DHT22;10059;59.850;10.454;2022-11-24T01:08:31;2.50;99.90
19799;DHT22;10059;59.850;10.454;2022-11-24T01:11:06;2.50;99.90
19799;DHT22;10059;59.850;10.454;2022-11-24T01:13:33;2.50;99.90
19799;DHT22;10059;59.850;10.454;2022-11-24T01:16:00;2.50;99.90
19799;DHT22;10059;59.850;10.454;2022-11-24T01:18:27;2.50;99.90
19799;DHT22;10059;59.850;10.454;2022-11-24T01:20:54;2.50;99.90
19799;DHT22;10059;59.850;10.454;2022-11-24T01:23:22;2.50;99.90
19799;DHT22;10059;59.850;10.454;2022-11-24T01:25:49;2.50;99.90
19799;DHT22;10059;59.850;10.454;2022-11-24T01:28:16;2.50;99.90
19799;DHT22;10059;59.850;10.454;2022-11-24T01:30:43;2.40;99.90
19799;DHT22;10059;59.850;10.454;2022-11-24T01:33:11;2.50;99.90
19799;DHT22;10059;59.850;10.454;2022-11-24T01:35:38;2.50;99.90
19799;DHT22;10059;59.850;10.454;2022-11-24T01:38:05;2.50;99.90
19799;DHT22;10059;59.850;10.454;2022-11-24T01:40:33;2.40;99.90
19799;DHT22;10059;59.850;10.454;2022-11-24T01:43:00;2.50;99.90
19799;DHT22;10059;59.850;10.454;2022-11-24T01:45:34;2.40;99.90
19799;DHT22;10059;59.850;10.454;2022-11-24T01:48:12;2.50;99.90
19799;DHT22;10059;59.850;10.454;2022-11-24T01:50:40;2.50;99.90
19799;DHT22;10059;59.850;10.454;2022-11-24T01:53:08;2.50;99.90
19799;DHT22;10059;59.850;10.454;2022-11-24T01:55:38;2.60;99.90
19799;DHT22;10059;59.850;10.454;2022-11-24T01:58:08;2.60;99.90
19799;DHT22;10059;59.850;10.454;2022-11-24T02:00:40;2.50;99.90
19799;DHT22;10059;59.850;10.454;2022-11-24T02:03:08;2.50;99.90
19799;DHT22;10059;59.850;10.454;2022-11-24T02:05:38;2.50;99.90
19799;DHT22;10059;59.850;10.454;2022-11-24T02:08:10;2.50;99.90
19799;DHT22;10059;59.850;10.454;2022-11-24T02:10:41;2.50;99.90
19799;DHT22;10059;59.850;10.454;2022-11-24T02:13:10;2.60;99.90
19799;DHT22;10059;59.850;10.454;2022-11-24T02:15:37;2.50;99.90
19799;DHT22;10059;59.850;10.454;2022-11-24T02:18:04;2.60;99.90
19799;DHT22;10059;59.850;10.454;2022-11-24T02:20:31;2.50;99.90
19799;DHT22;10059;59.850;10.454;2022-11-24T02:23:02;2.50;99.90
19799;DHT22;10059;59.850;10.454;2022-11-24T02:25:34;2.50;99.90
19799;DHT22;10059;59.850;10.454;2022-11-24T02:28:09;2.60;99.90
19799;DHT22;10059;59.850;10.454;2022-11-24T02:30:37;2.50;99.90
19799;DHT22;10059;59.850;10.454;2022-11-24T02:33:04;2.60;99.90
19799;DHT22;10059;59.850;10.454;2022-11-24T02:35:32;2.60;99.90
19799;DHT22;10059;59.850;10.454;2022-11-24T02:37:59;2.60;99.90
19799;DHT22;10059;59.850;10.454;2022-11-24T02:40:27;2.60;99.90
19799;DHT22;10059;59.850;10.454;2022-11-24T02:42:57;2.60;99.90
19799;DHT22;10059;59.850;10.454;2022-11-24T02:45:27;2.60;99.90
19799;DHT22;10059;59.850;10.454;2022-11-24T02:47:55;2.60;99.90
19799;DHT22;10059;59.850;10.454;2022-11-24T02:50:23;2.60;99.90
19799;DHT22;10059;59.850;10.454;2022-11-24T02:52:50;2.60;99.90
19799;DHT22;10059;59.850;10.454;2022-11-24T02:55:17;2.40;99.90
19799;DHT22;10059;59.850;10.454;2022-11-24T02:57:44;2.50;99.90
19799;DHT22;10059;59.850;10.454;2022-11-24T03:00:12;2.50;99.90
19799;DHT22;10059;59.850;10.454;2022-11-24T03:02:40;2.40;99.90
19799;DHT22;10059;59.850;10.454;2022-11-24T03:05:08;2.50;99.90
19799;DHT22;10059;59.850;10.454;2022-11-24T03:07:36;2.50;99.90
19799;DHT22;10059;59.850;10.454;2022-11-24T03:10:04;2.30;99.90
19799;DHT22;10059;59.850;10.454;2022-11-24T03:12:31;2.40;99.90
19799;DHT22;10059;59.850;10.454;2022-11-24T03:14:58;2.40;99.90
19799;DHT22;10059;59.850;10.454;2022-11-24T03:17:24;2.40;99.90
19799;DHT22;10059;59.850;10.454;2022-11-24T03:19:53;2.50;99.90
19799;DHT22;10059;59.850;10.454;2022-11-24T03:22:20;2.40;99.90
19799;DHT22;10059;59.850;10.454;2022-11-24T03:24:47;2.40;99.90
19799;DHT22;10059;59.850;10.454;2022-11-24T03:27:13;2.50;99.90
19799;DHT22;10059;59.850;10.454;2022-11-24T03:29:40;2.40;99.90
19799;DHT22;10059;59.850;10.454;2022-11-24T03:32:07;2.40;99.90
19799;DHT22;10059;59.850;10.454;2022-11-24T03:34:34;2.30;99.90
19799;DHT22;10059;59.850;10.454;2022-11-24T03:37:02;2.30;99.90
19799;DHT22;10059;59.850;10.454;2022-11-24T03:39:29;2.40;99.90
19799;DHT22;10059;59.850;10.454;2022-11-24T03:41:56;2.40;99.90
19799;DHT22;10059;59.850;10.454;2022-11-24T03:44:23;2.40;99.90
19799;DHT22;10059;59.850;10.454;2022-11-24T03:46:50;2.40;99.90
19799;DHT22;10059;59.850;10.454;2022-11-24T03:49:17;2.30;99.90
19799;DHT22;10059;59.850;10.454;2022-11-24T03:51:44;2.20;99.90
19799;DHT22;10059;59.850;10.454;2022-11-24T03:54:12;2.10;99.90
19799;DHT22;10059;59.850;10.454;2022-11-24T03:56:39;2.20;99.90
19799;DHT22;10059;59.850;10.454;2022-11-24T03:59:06;2.20;99.90
19799;DHT22;10059;59.850;10.454;2022-11-24T04:01:33;2.30;99.90
19799;DHT22;10059;59.850;10.454;2022-11-24T04:04:00;2.30;99.90
19799;DHT22;10059;59.850;10.454;2022-11-24T04:06:27;2.20;99.90
19799;DHT22;10059;59.850;10.454;2022-11-24T04:08:53;2.20;99.90
19799;DHT22;10059;59.850;10.454;2022-11-24T04:11:22;2.10;99.90
19799;DHT22;10059;59.850;10.454;2022-11-24T04:14:06;2.20;99.90
19799;DHT22;10059;59.850;10.454;2022-11-24T04:16:33;2.20;99.90
19799;DHT22;10059;59.850;10.454;2022-11-24T04:18:59;2.20;99.90
19799;DHT22;10059;59.850;10.454;2022-11-24T04:21:26;2.10;99.90
19799;DHT22;10059;59.850;10.454;2022-11-24T04:23:53;2.00;99.90
19799;DHT22;10059;59.850;10.454;2022-11-24T04:26:21;2.00;99.90
19799;DHT22;10059;59.850;10.454;2022-11-24T04:28:48;2.00;99.90
19799;DHT22;10059;59.850;10.454;2022-11-24T04:31:15;2.10;99.90
19799;DHT22;10059;59.850;10.454;2022-11-24T04:33:43;2.10;99.90
19799;DHT22;10059;59.850;10.454;2022-11-24T04:36:10;2.00;99.90
19799;DHT22;10059;59.850;10.454;2022-11-24T04:38:37;1.90;99.90
19799;DHT22;10059;59.850;10.454;2022-11-24T04:41:04;1.90;99.90
19799;DHT22;10059;59.850;10.454;2022-11-24T04:43:33;1.80;99.90
19799;DHT22;10059;59.850;10.454;2022-11-24T04:46:00;1.90;99.90
19799;DHT22;10059;59.850;10.454;2022-11-24T04:48:27;1.80;99.90
19799;DHT22;10059;59.850;10.454;2022-11-24T04:50:54;1.90;99.90
19799;DHT22;10059;59.850;10.454;2022-11-24T04:53:21;2.00;99.90
19799;DHT22;10059;59.850;10.454;2022-11-24T04:55:48;1.90;99.90
19799;DHT22;10059;59.850;10.454;2022-11-24T04:58:15;2.10;99.90
19799;DHT22;10059;59.850;10.454;2022-11-24T05:00:43;1.90;99.90
19799;DHT22;10059;59.850;10.454;2022-11-24T05:03:10;2.00;99.90
19799;DHT22;10059;59.850;10.454;2022-11-24T05:05:37;2.00;99.90
19799;DHT22;10059;59.850;10.454;2022-11-24T05:08:04;2.10;99.90
19799;DHT22;10059;59.850;10.454;2022-11-24T05:10:31;1.90;99.90
19799;DHT22;10059;59.850;10.454;2022-11-24T05:13:02;1.90;99.90
19799;DHT22;10059;59.850;10.454;2022-11-24T05:15:29;1.90;99.90
19799;DHT22;10059;59.850;10.454;2022-11-24T05:17:58;2.00;99.90
19799;DHT22;10059;59.850;10.454;2022-11-24T05:20:25;2.00;99.90
19799;DHT22;10059;59.850;10.454;2022-11-24T05:22:52;2.00;99.90
19799;DHT22;10059;59.850;10.454;2022-11-24T05:25:19;2.00;99.90
19799;DHT22;10059;59.850;10.454;2022-11-24T05:27:46;1.90;99.90
19799;DHT22;10059;59.850;10.454;2022-11-24T05:30:13;1.90;99.90
19799;DHT22;10059;59.850;10.454;2022-11-24T05:32:40;1.90;99.90
19799;DHT22;10059;59.850;10.454;2022-11-24T05:35:08;1.90;99.90
19799;DHT22;10059;59.850;10.454;2022-11-24T05:37:35;1.90;99.90
19799;DHT22;10059;59.850;10.454;2022-11-24T05:40:03;1.90;99.90
19799;DHT22;10059;59.850;10.454;2022-11-24T05:42:31;1.90;99.90
19799;DHT22;10059;59.850;10.454;2022-11-24T05:45:08;1.90;99.90
19799;DHT22;10059;59.850;10.454;2022-11-24T05:47:36;1.90;99.90
19799;DHT22;10059;59.850;10.454;2022-11-24T05:50:04;1.90;99.90
19799;DHT22;10059;59.850;10.454;2022-11-24T05:52:32;2.00;99.90
19799;DHT22;10059;59.850;10.454;2022-11-24T05:54:59;1.90;99.90
19799;DHT22;10059;59.850;10.454;2022-11-24T05:57:26;1.80;99.90
19799;DHT22;10059;59.850;10.454;2022-11-24T05:59:53;1.80;99.90
19799;DHT22;10059;59.850;10.454;2022-11-24T06:02:20;1.90;99.90
19799;DHT22;10059;59.850;10.454;2022-11-24T06:04:47;1.90;99.90
19799;DHT22;10059;59.850;10.454;2022-11-24T06:07:14;1.80;99.90
19799;DHT22;10059;59.850;10.454;2022-11-24T06:09:43;1.70;99.90
19799;DHT22;10059;59.850;10.454;2022-11-24T06:12:11;1.70;99.90
19799;DHT22;10059;59.850;10.454;2022-11-24T06:14:38;1.70;99.90
19799;DHT22;10059;59.850;10.454;2022-11-24T06:17:05;1.80;99.90
19799;DHT22;10059;59.850;10.454;2022-11-24T06:19:33;1.70;99.90
19799;DHT22;10059;59.850;10.454;2022-11-24T06:21:59;1.80;99.90
19799;DHT22;10059;59.850;10.454;2022-11-24T06:24:26;1.80;99.90
19799;DHT22;10059;59.850;10.454;2022-11-24T06:26:55;1.60;99.90
19799;DHT22;10059;59.850;10.454;2022-11-24T06:29:21;1.70;99.90
19799;DHT22;10059;59.850;10.454;2022-11-24T06:31:48;1.70;99.90
19799;DHT22;10059;59.850;10.454;2022-11-24T06:34:15;1.60;99.90
19799;DHT22;10059;59.850;10.454;2022-11-24T06:36:42;1.60;99.90
19799;DHT22;10059;59.850;10.454;2022-11-24T06:39:09;1.60;99.90
19799;DHT22;10059;59.850;10.454;2022-11-24T06:41:36;1.60;99.90
19799;DHT22;10059;59.850;10.454;2022-11-24T06:44:04;1.60;99.90
19799;DHT22;10059;59.850;10.454;2022-11-24T06:46:31;1.60;99.90
19799;DHT22;10059;59.850;10.454;2022-11-24T06:48:58;1.60;99.90
19799;DHT22;10059;59.850;10.454;2022-11-24T06:51:25;1.60;99.90
19799;DHT22;10059;59.850;10.454;2022-11-24T06:53:52;1.70;99.90
19799;DHT22;10059;59.850;10.454;2022-11-24T06:56:20;1.60;99.90
19799;DHT22;10059;59.850;10.454;2022-11-24T06:58:48;1.60;99.90
19799;DHT22;10059;59.850;10.454;2022-11-24T07:01:18;1.80;99.90
19799;DHT22;10059;59.850;10.454;2022-11-24T07:03:45;1.80;99.90
19799;DHT22;10059;59.850;10.454;2022-11-24T07:06:12;1.80;99.90
19799;DHT22;10059;59.850;10.454;2022-11-24T07:08:39;2.00;99.90
19799;DHT22;10059;59.850;10.454;2022-11-24T07:11:08;1.90;99.90
19799;DHT22;10059;59.850;10.454;2022-11-24T07:13:35;1.80;99.90
19799;DHT22;10059;59.850;10.454;2022-11-24T07:16:10;1.80;99.90
19799;DHT22;10059;59.850;10.454;2022-11-24T07:18:39;1.80;99.90
19799;DHT22;10059;59.850;10.454;2022-11-24T07:21:06;1.80;99.90
19799;DHT22;10059;59.850;10.454;2022-11-24T07:23:33;1.80;99.90
19799;DHT22;10059;59.850;10.454;2022-11-24T07:26:01;1.80;99.90
19799;DHT22;10059;59.850;10.454;2022-11-24T07:28:28;1.80;99.90
19799;DHT22;10059;59.850;10.454;2022-11-24T07:30:55;1.80;99.90
19799;DHT22;10059;59.850;10.454;2022-11-24T07:33:22;1.70;99.90
19799;DHT22;10059;59.850;10.454;2022-11-24T07:35:52;1.70;99.90
19799;DHT22;10059;59.850;10.454;2022-11-24T07:38:19;1.70;99.90
19799;DHT22;10059;59.850;10.454;2022-11-24T07:40:46;1.80;99.90
19799;DHT22;10059;59.850;10.454;2022-11-24T07:43:13;1.70;99.90
19799;DHT22;10059;59.850;10.454;2022-11-24T07:45:40;1.70;99.90
19799;DHT22;10059;59.850;10.454;2022-11-24T07:48:07;1.80;99.90
19799;DHT22;10059;59.850;10.454;2022-11-24T07:50:34;1.80;99.90
19799;DHT22;10059;59.850;10.454;2022-11-24T07:53:03;1.90;99.90
19799;DHT22;10059;59.850;10.454;2022-11-24T07:55:30;1.90;99.90
19799;DHT22;10059;59.850;10.454;2022-11-24T07:57:58;1.90;99.90
19799;DHT22;10059;59.850;10.454;2022-11-24T08:00:26;1.90;99.90
19799;DHT22;10059;59.850;10.454;2022-11-24T08:02:53;1.90;99.90
19799;DHT22;10059;59.850;10.454;2022-11-24T08:05:20;2.00;99.90
19799;DHT22;10059;59.850;10.454;2022-11-24T08:07:47;1.90;99.90
19799;DHT22;10059;59.850;10.454;2022-11-24T08:10:16;1.90;99.90
19799;DHT22;10059;59.850;10.454;2022-11-24T08:12:43;1.90;99.90
19799;DHT22;10059;59.850;10.454;2022-11-24T08:15:10;2.00;99.90
19799;DHT22;10059;59.850;10.454;2022-11-24T08:17:37;2.00;99.90
19799;DHT22;10059;59.850;10.454;2022-11-24T08:20:05;2.00;99.90
19799;DHT22;10059;59.850;10.454;2022-11-24T08:22:33;2.10;99.90
19799;DHT22;10059;59.850;10.454;2022-11-24T08:25:00;2.20;99.90
19799;DHT22;10059;59.850;10.454;2022-11-24T08:27:29;2.10;99.90
19799;DHT22;10059;59.850;10.454;2022-11-24T08:29:56;2.10;99.90
19799;DHT22;10059;59.850;10.454;2022-11-24T08:32:22;2.20;99.90
19799;DHT22;10059;59.850;10.454;2022-11-24T08:34:49;2.20;99.90
19799;DHT22;10059;59.850;10.454;2022-11-24T08:37:16;2.20;99.90
19799;DHT22;10059;59.850;10.454;2022-11-24T08:39:43;2.20;99.90
19799;DHT22;10059;59.850;10.454;2022-11-24T08:42:10;2.20;99.90
19799;DHT22;10059;59.850;10.454;2022-11-24T08:44:39;2.20;99.90
19799;DHT22;10059;59.850;10.454;2022-11-24T08:47:05;2.20;99.90
19799;DHT22;10059;59.850;10.454;2022-11-24T08:49:32;2.30;99.90
19799;DHT22;10059;59.850;10.454;2022-11-24T08:51:59;2.30;99.90
19799;DHT22;10059;59.850;10.454;2022-11-24T08:54:26;2.30;99.90
19799;DHT22;10059;59.850;10.454;2022-11-24T08:56:53;2.30;99.90
19799;DHT22;10059;59.850;10.454;2022-11-24T08:59:20;2.20;99.90
19799;DHT22;10059;59.850;10.454;2022-11-24T09:01:48;2.20;99.90
19799;DHT22;10059;59.850;10.454;2022-11-24T09:04:15;2.20;99.90
19799;DHT22;10059;59.850;10.454;2022-11-24T09:06:42;2.10;99.90
19799;DHT22;10059;59.850;10.454;2022-11-24T09:09:09;2.10;99.90
19799;DHT22;10059;59.850;10.454;2022-11-24T09:11:37;2.10;99.90
19799;DHT22;10059;59.850;10.454;2022-11-24T09:14:04;2.10;99.90
19799;DHT22;10059;59.850;10.454;2022-11-24T09:16:31;2.20;99.90
19799;DHT22;10059;59.850;10.454;2022-11-24T09:19:01;2.20;99.90
19799;DHT22;10059;59.850;10.454;2022-11-24T09:21:29;2.10;99.90
19799;DHT22;10059;59.850;10.454;2022-11-24T09:23:56;2.10;99.90
19799;DHT22;10059;59.850;10.454;2022-11-24T09:26:25;2.10;99.90
19799;DHT22;10059;59.850;10.454;2022-11-24T09:28:53;2.10;99.90
19799;DHT22;10059;59.850;10.454;2022-11-24T09:31:22;2.10;99.90
19799;DHT22;10059;59.850;10.454;2022-11-24T09:33:50;2.10;99.90
19799;DHT22;10059;59.850;10.454;2022-11-24T09:36:19;2.20;99.90
19799;DHT22;10059;59.850;10.454;2022-11-24T09:38:47;2.20;99.90
19799;DHT22;10059;59.850;10.454;2022-11-24T09:44:40;2.00;99.90
19799;DHT22;10059;59.850;10.454;2022-11-24T09:47:17;2.00;99.90
19799;DHT22;10059;59.850;10.454;2022-11-24T09:49:48;2.00;99.90
19799;DHT22;10059;59.850;10.454;2022-11-24T09:52:24;2.00;99.90
19799;DHT22;10059;59.850;10.454;2022-11-24T09:54:58;2.00;99.90
19799;DHT22;10059;59.850;10.454;2022-11-24T09:57:28;2.10;99.90
19799;DHT22;10059;59.850;10.454;2022-11-24T10:00:02;2.10;99.90
19799;DHT22;10059;59.850;10.454;2022-11-24T10:02:29;2.10;99.90
19799;DHT22;10059;59.850;10.454;2022-11-24T10:04:58;2.00;99.90
19799;DHT22;10059;59.850;10.454;2022-11-24T10:07:28;2.00;99.90
19799;DHT22;10059;59.850;10.454;2022-11-24T10:10:03;1.90;99.90
19799;DHT22;10059;59.850;10.454;2022-11-24T10:12:40;2.00;99.90
19799;DHT22;10059;59.850;10.454;2022-11-24T10:15:24;2.00;99.90
19799;DHT22;10059;59.850;10.454;2022-11-24T10:18:13;2.10;99.90
19799;DHT22;10059;59.850;10.454;2022-11-24T10:20:51;2.10;99.90
19799;DHT22;10059;59.850;10.454;2022-11-24T10:23:40;2.20;99.90
19799;DHT22;10059;59.850;10.454;2022-11-24T10:26:15;2.30;99.90
19799;DHT22;10059;59.850;10.454;2022-11-24T10:28:47;2.10;99.90
19799;DHT22;10059;59.850;10.454;2022-11-24T10:31:22;2.00;99.90
19799;DHT22;10059;59.850;10.454;2022-11-24T10:33:50;2.10;99.90
19799;DHT22;10059;59.850;10.454;2022-11-24T10:36:20;2.00;99.90
19799;DHT22;10059;59.850;10.454;2022-11-24T10:38:57;2.10;99.90
19799;DHT22;10059;59.850;10.454;2022-11-24T10:41:36;2.00;99.90
19799;DHT22;10059;59.850;10.454;2022-11-24T10:44:11;2.00;99.90
19799;DHT22;10059;59.850;10.454;2022-11-24T10:46:38;1.90;99.90
19799;DHT22;10059;59.850;10.454;2022-11-24T10:49:05;2.00;99.90
19799;DHT22;10059;59.850;10.454;2022-11-24T10:51:43;2.00;99.90
19799;DHT22;10059;59.850;10.454;2022-11-24T10:54:16;2.10;99.90
19799;DHT22;10059;59.850;10.454;2022-11-24T10:56:44;2.10;99.90
19799;DHT22;10059;59.850;10.454;2022-11-24T10:59:33;2.10;99.90
19799;DHT22;10059;59.850;10.454;2022-11-24T11:02:01;2.00;99.90
19799;DHT22;10059;59.850;10.454;2022-11-24T11:04:30;2.10;99.90
19799;DHT22;10059;59.850;10.454;2022-11-24T11:07:08;2.10;99.90
19799;DHT22;10059;59.850;10.454;2022-11-24T11:09:36;2.20;99.90
19799;DHT22;10059;59.850;10.454;2022-11-24T11:12:11;2.00;99.90
19799;DHT22;10059;59.850;10.454;2022-11-24T11:14:38;2.00;99.90
19799;DHT22;10059;59.850;10.454;2022-11-24T11:17:30;2.00;99.90
19799;DHT22;10059;59.850;10.454;2022-11-24T11:20:02;2.10;99.90
19799;DHT22;10059;59.850;10.454;2022-11-24T11:22:31;1.90;99.90
19799;DHT22;10059;59.850;10.454;2022-11-24T11:25:06;2.00;99.90
19799;DHT22;10059;59.850;10.454;2022-11-24T11:27:41;2.00;99.90
19799;DHT22;10059;59.850;10.454;2022-11-24T11:30:17;1.90;99.90
19799;DHT22;10059;59.850;10.454;2022-11-24T11:32:51;2.10;99.90
19799;DHT22;10059;59.850;10.454;2022-11-24T11:35:19;2.00;99.90
19799;DHT22;10059;59.850;10.454;2022-11-24T11:37:47;2.00;99.90
19799;DHT22;10059;59.850;10.454;2022-11-24T11:40:19;2.00;99.90
19799;DHT22;10059;59.850;10.454;2022-11-24T11:42:50;2.10;99.90
19799;DHT22;10059;59.850;10.454;2022-11-24T11:45:21;2.20;99.90
19799;DHT22;10059;59.850;10.454;2022-11-24T11:47:52;2.10;99.90
19799;DHT22;10059;59.850;10.454;2022-11-24T11:50:24;2.10;99.90
19799;DHT22;10059;59.850;10.454;2022-11-24T11:53:04;2.10;99.90
19799;DHT22;10059;59.850;10.454;2022-11-24T11:55:59;2.10;99.90
19799;DHT22;10059;59.850;10.454;2022-11-24T11:58:56;2.10;99.90
19799;DHT22;10059;59.850;10.454;2022-11-24T12:04:42;2.00;99.90
19799;DHT22;10059;59.850;10.454;2022-11-24T12:10:25;2.10;99.90
19799;DHT22;10059;59.850;10.454;2022-11-24T12:13:14;2.10;99.90
19799;DHT22;10059;59.850;10.454;2022-11-24T12:15:48;2.00;99.90
19799;DHT22;10059;59.850;10.454;2022-11-24T12:18:27;2.00;99.90
19799;DHT22;10059;59.850;10.454;2022-11-24T12:21:05;2.00;99.90
19799;DHT22;10059;59.850;10.454;2022-11-24T12:23:43;2.00;99.90
19799;DHT22;10059;59.850;10.454;2022-11-24T12:26:23;1.90;99.90
19799;DHT22;10059;59.850;10.454;2022-11-24T12:28:59;1.90;99.90
19799;DHT22;10059;59.850;10.454;2022-11-24T12:31:31;2.00;99.90
19799;DHT22;10059;59.850;10.454;2022-11-24T12:34:21;2.10;99.90
19799;DHT22;10059;59.850;10.454;2022-11-24T12:37:04;2.10;99.90
19799;DHT22;10059;59.850;10.454;2022-11-24T12:39:36;2.10;99.90
19799;DHT22;10059;59.850;10.454;2022-11-24T12:42:10;2.10;99.90
19799;DHT22;10059;59.850;10.454;2022-11-24T12:44:58;2.10;99.90
19799;DHT22;10059;59.850;10.454;2022-11-24T12:47:34;2.10;99.90
19799;DHT22;10059;59.850;10.454;2022-11-24T12:50:09;2.00;99.90
19799;DHT22;10059;59.850;10.454;2022-11-24T12:52:41;2.00;99.90
19799;DHT22;10059;59.850;10.454;2022-11-24T12:55:16;1.90;99.90
19799;DHT22;10059;59.850;10.454;2022-11-24T12:57:48;2.00;99.90
19799;DHT22;10059;59.850;10.454;2022-11-24T13:00:21;2.00;99.90
19799;DHT22;10059;59.850;10.454;2022-11-24T13:03:12;2.10;99.90
19799;DHT22;10059;59.850;10.454;2022-11-24T13:05:47;2.10;99.90
19799;DHT22;10059;59.850;10.454;2022-11-24T13:08:18;2.00;99.90
19799;DHT22;10059;59.850;10.454;2022-11-24T13:10:45;2.10;99.90
19799;DHT22;10059;59.850;10.454;2022-11-24T13:13:13;2.10;99.90
19799;DHT22;10059;59.850;10.454;2022-11-24T13:16:05;2.10;99.90
19799;DHT22;10059;59.850;10.454;2022-11-24T13:18:44;2.10;99.90
19799;DHT22;10059;59.850;10.454;2022-11-24T13:21:45;2.10;99.90
19799;DHT22;10059;59.850;10.454;2022-11-24T13:24:23;2.20;99.90
19799;DHT22;10059;59.850;10.454;2022-11-24T13:26:52;2.20;99.90
19799;DHT22;10059;59.850;10.454;2022-11-24T13:29:31;2.30;99.90
19799;DHT22;10059;59.850;10.454;2022-11-24T13:35:11;2.30;99.90
19799;DHT22;10059;59.850;10.454;2022-11-24T13:37:48;2.20;99.90
19799;DHT22;10059;59.850;10.454;2022-11-24T13:40:37;2.20;99.90
19799;DHT22;10059;59.850;10.454;2022-11-24T13:43:20;2.20;99.90
19799;DHT22;10059;59.850;10.454;2022-11-24T13:45:49;2.30;99.90
19799;DHT22;10059;59.850;10.454;2022-11-24T13:51:22;2.30;99.90
19799;DHT22;10059;59.850;10.454;2022-11-24T13:53:50;2.40;99.90
19799;DHT22;10059;59.850;10.454;2022-11-24T13:56:24;2.40;99.90
19799;DHT22;10059;59.850;10.454;2022-11-24T13:58:54;2.30;99.90
19799;DHT22;10059;59.850;10.454;2022-11-24T14:01:23;2.30;99.90
19799;DHT22;10059;59.850;10.454;2022-11-24T14:04:03;2.30;99.90
19799;DHT22;10059;59.850;10.454;2022-11-24T14:06:38;2.40;99.90
19799;DHT22;10059;59.850;10.454;2022-11-24T14:09:22;2.30;99.90
19799;DHT22;10059;59.850;10.454;2022-11-24T14:12:11;2.30;99.90
19799;DHT22;10059;59.850;10.454;2022-11-24T14:14:39;2.30;99.90
19799;DHT22;10059;59.850;10.454;2022-11-24T14:17:12;2.30;99.90
19799;DHT22;10059;59.850;10.454;2022-11-24T14:19:41;2.30;99.90
19799;DHT22;10059;59.850;10.454;2022-11-24T14:22:17;2.30;99.90
19799;DHT22;10059;59.850;10.454;2022-11-24T14:24:45;2.30;99.90
19799;DHT22;10059;59.850;10.454;2022-11-24T14:27:22;2.30;99.90
19799;DHT22;10059;59.850;10.454;2022-11-24T14:29:55;2.30;99.90
19799;DHT22;10059;59.850;10.454;2022-11-24T14:32:23;2.30;99.90
19799;DHT22;10059;59.850;10.454;2022-11-24T14:34:50;2.30;99.90
19799;DHT22;10059;59.850;10.454;2022-11-24T14:37:20;2.30;99.90
19799;DHT22;10059;59.850;10.454;2022-11-24T14:39:47;2.40;99.90
19799;DHT22;10059;59.850;10.454;2022-11-24T14:42:19;2.60;99.90
19799;DHT22;10059;59.850;10.454;2022-11-24T14:44:50;2.60;99.90
19799;DHT22;10059;59.850;10.454;2022-11-24T14:47:22;2.60;99.90
19799;DHT22;10059;59.850;10.454;2022-11-24T14:49:51;2.60;99.90
19799;DHT22;10059;59.850;10.454;2022-11-24T14:52:21;2.60;99.90
19799;DHT22;10059;59.850;10.454;2022-11-24T14:54:50;2.70;99.90
19799;DHT22;10059;59.850;10.454;2022-11-24T14:57:29;2.60;99.90
19799;DHT22;10059;59.850;10.454;2022-11-24T15:00:17;2.60;99.90
19799;DHT22;10059;59.850;10.454;2022-11-24T15:02:46;2.60;99.90
19799;DHT22;10059;59.850;10.454;2022-11-24T15:05:14;2.60;99.90
19799;DHT22;10059;59.850;10.454;2022-11-24T15:07:44;2.60;99.90
19799;DHT22;10059;59.850;10.454;2022-11-24T15:10:20;2.60;99.90
19799;DHT22;10059;59.850;10.454;2022-11-24T15:12:51;2.50;99.90
19799;DHT22;10059;59.850;10.454;2022-11-24T15:15:21;2.50;99.90
19799;DHT22;10059;59.850;10.454;2022-11-24T15:17:51;2.50;99.90
19799;DHT22;10059;59.850;10.454;2022-11-24T15:20:25;2.50;99.90
19799;DHT22;10059;59.850;10.454;2022-11-24T15:23:19;2.50;99.90
19799;DHT22;10059;59.850;10.454;2022-11-24T15:25:46;2.50;99.90
19799;DHT22;10059;59.850;10.454;2022-11-24T15:28:14;2.50;99.90
19799;DHT22;10059;59.850;10.454;2022-11-24T15:30:41;2.60;99.90
19799;DHT22;10059;59.850;10.454;2022-11-24T15:33:13;2.60;99.90
19799;DHT22;10059;59.850;10.454;2022-11-24T15:35:40;2.60;99.90
19799;DHT22;10059;59.850;10.454;2022-11-24T15:38:07;2.70;99.90
19799;DHT22;10059;59.850;10.454;2022-11-24T15:40:36;2.60;99.90
19799;DHT22;10059;59.850;10.454;2022-11-24T15:43:16;2.60;99.90
19799;DHT22;10059;59.850;10.454;2022-11-24T15:45:44;2.60;99.90
19799;DHT22;10059;59.850;10.454;2022-11-24T15:48:10;2.60;99.90
19799;DHT22;10059;59.850;10.454;2022-11-24T15:50:37;2.50;99.90
19799;DHT22;10059;59.850;10.454;2022-11-24T15:53:04;2.60;99.90
19799;DHT22;10059;59.850;10.454;2022-11-24T15:55:32;2.60;99.90
19799;DHT22;10059;59.850;10.454;2022-11-24T15:58:00;2.60;99.90
19799;DHT22;10059;59.850;10.454;2022-11-24T16:00:27;2.70;99.90
19799;DHT22;10059;59.850;10.454;2022-11-24T16:02:54;2.70;99.90
19799;DHT22;10059;59.850;10.454;2022-11-24T16:05:21;2.80;99.90